Huntsville, Arkansas
Current Conditions -  °F | °C
As of 5:48 AM on Sunday 23 Nov 2014 (Local Time) from KASG Reporting Station
Overcast Overcast  
Wind Chill: 57°   Ceiling: 1200
Heat Index: 57°   Visibility: 7mi
Dew Point: 54°   Wind: 9mph
Humidity: 88%   Direction: 150°SSE
Pressure: 29.61"   Gusts: NA
Location:  36.09°N, 93.74°W
Report Text: KASG 231148Z 15008KT 7SM OVC012 14/12 A2961
Loading
Personal Weather Stations






























Interactive Weather Map New forecast layout! Learn more

10-Day Weather Forecast

Advertisements
Track Severe Weather on mobile